createdAt,value
2022-12-20T00:01:00.373Z,6.50
2022-12-20T00:03:33.271Z,6.30
2022-12-20T00:06:06.607Z,5.90
2022-12-20T00:08:39.974Z,6.00
2022-12-20T00:11:13.289Z,6.20
2022-12-20T00:13:47.605Z,5.57
2022-12-20T00:16:22.308Z,5.70
2022-12-20T00:19:00.177Z,5.80
2022-12-20T00:21:34.032Z,5.30
2022-12-20T00:24:07.434Z,5.60
2022-12-20T00:26:40.634Z,6.00
2022-12-20T00:29:13.632Z,5.80
2022-12-20T00:31:46.788Z,6.17
2022-12-20T00:34:20.002Z,5.73
2022-12-20T00:36:52.558Z,5.70
2022-12-20T00:39:28.076Z,5.60
2022-12-20T00:42:01.119Z,5.70
2022-12-20T00:44:34.116Z,5.70
2022-12-20T00:47:10.157Z,5.60
2022-12-20T00:49:43.177Z,5.70
2022-12-20T00:52:16.692Z,5.60
2022-12-20T00:54:49.666Z,5.37
2022-12-20T00:57:22.726Z,5.40
2022-12-20T00:59:55.638Z,5.80
2022-12-20T01:02:28.824Z,5.50
2022-12-20T01:05:01.994Z,5.50
2022-12-20T01:07:35.041Z,5.40
2022-12-20T01:10:07.961Z,5.30
2022-12-20T01:12:40.846Z,5.30
2022-12-20T01:15:14.550Z,5.33
2022-12-20T01:17:47.537Z,5.40
2022-12-20T01:20:20.669Z,5.20
2022-12-20T01:22:53.823Z,5.30
2022-12-20T01:25:26.872Z,5.10
2022-12-20T01:27:59.964Z,5.10
2022-12-20T01:30:33.092Z,4.80
2022-12-20T01:33:06.053Z,5.00
2022-12-20T01:35:41.730Z,5.10
2022-12-20T01:38:14.841Z,4.60
2022-12-20T01:40:48.004Z,4.50
2022-12-20T01:43:22.801Z,4.57
2022-12-20T01:45:55.778Z,4.70
2022-12-20T01:48:29.939Z,4.63
2022-12-20T01:51:04.110Z,5.20
2022-12-20T01:53:36.993Z,4.93
2022-12-20T01:56:11.724Z,5.17
2022-12-20T01:58:45.614Z,5.20
2022-12-20T02:01:18.948Z,5.10
2022-12-20T02:03:52.641Z,4.90
2022-12-20T02:06:29.561Z,4.90
2022-12-20T02:09:04.541Z,4.80
2022-12-20T02:11:42.190Z,4.80
2022-12-20T02:14:20.166Z,4.70
2022-12-20T02:16:55.276Z,4.60
2022-12-20T02:19:46.606Z,4.70
2022-12-20T02:22:24.490Z,4.60
2022-12-20T02:24:59.326Z,5.20
2022-12-20T02:27:34.322Z,4.70
2022-12-20T02:30:15.211Z,4.90
2022-12-20T02:32:50.068Z,5.10
2022-12-20T02:35:24.893Z,4.90
2022-12-20T02:37:59.951Z,5.43
2022-12-20T02:40:43.157Z,5.27
2022-12-20T02:43:33.005Z,5.53
2022-12-20T02:46:07.309Z,5.20
2022-12-20T02:48:41.981Z,5.57
2022-12-20T02:51:16.090Z,5.30
2022-12-20T02:53:49.453Z,5.30
2022-12-20T02:56:39.339Z,5.10
2022-12-20T02:59:17.125Z,5.00
2022-12-20T03:01:52.351Z,5.50
2022-12-20T03:04:27.421Z,5.67
2022-12-20T03:07:05.539Z,5.30
2022-12-20T03:09:40.017Z,5.20
2022-12-20T03:12:13.663Z,5.00
2022-12-20T03:14:46.724Z,5.13
2022-12-20T03:17:20.114Z,5.30
2022-12-20T03:19:53.014Z,5.30
2022-12-20T03:22:25.888Z,5.57
2022-12-20T03:24:59.126Z,5.80
2022-12-20T03:27:32.062Z,5.40
2022-12-20T03:30:04.915Z,5.50
2022-12-20T03:32:37.744Z,5.90
2022-12-20T03:35:11.313Z,5.80
2022-12-20T03:37:44.211Z,6.50
2022-12-20T03:40:18.083Z,6.73
2022-12-20T03:42:50.910Z,7.20
2022-12-20T03:45:23.912Z,7.30
2022-12-20T03:47:56.927Z,8.20
2022-12-20T03:50:30.273Z,8.40
2022-12-20T03:53:06.601Z,8.87
2022-12-20T03:55:41.686Z,9.80
2022-12-20T03:58:13.725Z,10.27
2022-12-20T04:00:46.631Z,11.00
2022-12-20T04:03:19.750Z,10.77
2022-12-20T04:05:52.645Z,10.70
2022-12-20T04:08:25.607Z,10.43
2022-12-20T04:11:16.096Z,10.83
2022-12-20T04:13:53.827Z,11.30
2022-12-20T04:16:28.287Z,11.60
2022-12-20T04:19:01.290Z,11.80
2022-12-20T04:21:36.493Z,10.83
2022-12-20T04:24:09.955Z,11.57
2022-12-20T04:26:43.374Z,11.50
2022-12-20T04:29:16.320Z,10.70
2022-12-20T04:31:49.337Z,10.80
2022-12-20T04:34:22.171Z,10.70
2022-12-20T04:36:55.142Z,10.23
2022-12-20T04:39:28.054Z,11.00
2022-12-20T04:42:01.301Z,10.67
2022-12-20T04:44:34.127Z,9.93
2022-12-20T04:47:07.041Z,10.13
2022-12-20T04:49:39.976Z,10.60
2022-12-20T04:52:30.641Z,10.40
2022-12-20T04:55:04.494Z,10.70
2022-12-20T04:57:37.411Z,11.00
2022-12-20T05:00:11.587Z,10.70
2022-12-20T05:02:44.671Z,10.40
2022-12-20T05:05:18.189Z,10.30
2022-12-20T05:07:51.141Z,10.20
2022-12-20T05:10:24.152Z,10.17
2022-12-20T05:12:57.076Z,10.30
2022-12-20T05:15:30.095Z,10.80
2022-12-20T05:18:03.308Z,10.20
2022-12-20T05:20:36.339Z,9.50
2022-12-20T05:23:26.809Z,8.70
2022-12-20T05:26:17.410Z,9.20
2022-12-20T05:28:50.627Z,8.60
2022-12-20T05:31:23.719Z,8.57
2022-12-20T05:33:56.652Z,8.20
2022-12-20T05:36:29.819Z,8.50
2022-12-20T05:39:04.604Z,8.50
2022-12-20T05:41:41.204Z,8.10
2022-12-20T05:44:14.017Z,8.50
2022-12-20T05:46:47.003Z,8.60
2022-12-20T05:49:20.075Z,8.00
2022-12-20T05:51:53.027Z,8.30
2022-12-20T05:54:27.231Z,8.40
2022-12-20T05:57:00.184Z,8.20
2022-12-20T05:59:33.619Z,8.10
2022-12-20T06:02:08.054Z,7.80
2022-12-20T06:04:41.642Z,7.77
2022-12-20T06:07:15.197Z,7.50
2022-12-20T06:09:48.219Z,7.20
2022-12-20T06:12:21.395Z,7.90
2022-12-20T06:14:54.288Z,7.33
2022-12-20T06:17:29.425Z,7.40
2022-12-20T06:20:03.810Z,6.80
2022-12-20T06:22:38.821Z,7.00
2022-12-20T06:25:12.894Z,6.80
2022-12-20T06:27:46.261Z,6.77
2022-12-20T06:30:19.838Z,7.10
2022-12-20T06:32:52.759Z,7.37
2022-12-20T06:35:25.613Z,7.00
2022-12-20T06:37:58.697Z,7.60
2022-12-20T06:40:31.526Z,7.60
2022-12-20T06:43:04.410Z,7.40
2022-12-20T06:45:41.483Z,7.10
2022-12-20T06:48:11.372Z,7.30
2022-12-20T06:50:44.323Z,6.90
2022-12-20T06:53:17.136Z,6.80
2022-12-20T06:55:53.922Z,6.40
2022-12-20T06:58:26.921Z,6.80
2022-12-20T07:01:04.630Z,6.83
2022-12-20T07:03:37.765Z,7.10
2022-12-20T07:06:11.148Z,6.80
2022-12-20T07:08:44.090Z,6.60
2022-12-20T07:11:17.279Z,7.20
2022-12-20T07:13:50.453Z,6.83
2022-12-20T07:16:23.586Z,6.90
2022-12-20T07:19:03.172Z,7.20
2022-12-20T07:21:36.168Z,7.27
2022-12-20T07:24:10.409Z,6.80
2022-12-20T07:26:43.321Z,7.20
2022-12-20T07:29:17.004Z,7.30
2022-12-20T07:31:49.878Z,7.00
2022-12-20T07:34:23.312Z,6.80
2022-12-20T07:36:56.154Z,7.10
2022-12-20T07:39:28.960Z,7.00
2022-12-20T07:42:02.485Z,6.80
2022-12-20T07:44:35.733Z,6.93
2022-12-20T07:47:09.886Z,6.70
2022-12-20T07:49:42.951Z,7.40
2022-12-20T07:52:17.608Z,7.80
2022-12-20T07:54:52.791Z,7.53
2022-12-20T07:57:33.347Z,7.60
2022-12-20T08:00:07.406Z,7.20
2022-12-20T08:02:42.401Z,7.40
2022-12-20T08:05:15.907Z,7.30
2022-12-20T08:07:53.581Z,6.80
2022-12-20T08:10:26.962Z,6.80
2022-12-20T08:13:00.238Z,7.60
2022-12-20T08:15:33.651Z,7.20
2022-12-20T08:18:07.870Z,6.80
2022-12-20T08:20:40.944Z,7.30
2022-12-20T08:23:13.948Z,7.70
2022-12-20T08:25:46.817Z,8.60
2022-12-20T08:28:19.681Z,8.90
2022-12-20T08:30:52.656Z,8.50
2022-12-20T08:33:25.711Z,8.30
2022-12-20T08:36:06.281Z,8.13
2022-12-20T08:38:40.364Z,8.20
2022-12-20T08:41:19.394Z,8.10
2022-12-20T08:43:52.411Z,8.30
2022-12-20T08:46:25.366Z,7.90
2022-12-20T08:48:58.267Z,7.10
2022-12-20T08:51:31.209Z,7.00
2022-12-20T08:54:04.540Z,7.10
2022-12-20T08:56:41.732Z,6.90
2022-12-20T08:59:15.149Z,6.43
2022-12-20T09:01:48.191Z,6.40
2022-12-20T09:04:21.607Z,6.77
2022-12-20T09:06:54.700Z,6.73
2022-12-20T09:09:27.743Z,7.00
2022-12-20T09:12:00.626Z,7.10
2022-12-20T09:14:33.557Z,7.30
2022-12-20T09:17:06.620Z,7.20
2022-12-20T09:19:39.891Z,7.27
2022-12-20T09:22:12.715Z,7.30
2022-12-20T09:24:51.426Z,7.20
2022-12-20T09:27:24.404Z,7.30
2022-12-20T09:29:57.248Z,6.93
2022-12-20T09:32:30.345Z,7.00
2022-12-20T09:35:03.209Z,7.00
2022-12-20T09:37:36.132Z,7.10
2022-12-20T09:40:11.188Z,7.20
2022-12-20T09:42:44.173Z,7.00
2022-12-20T09:45:19.174Z,6.90
2022-12-20T09:47:52.333Z,6.80
2022-12-20T09:50:26.936Z,7.17
2022-12-20T09:53:04.813Z,7.23
2022-12-20T09:55:42.578Z,7.50
2022-12-20T09:58:37.221Z,8.00
2022-12-20T10:01:36.317Z,8.10
2022-12-20T10:04:06.492Z,7.70
2022-12-20T10:07:00.670Z,7.83
2022-12-20T10:09:47.436Z,7.40
2022-12-20T10:12:38.675Z,7.50
2022-12-20T10:15:39.407Z,7.60
2022-12-20T10:18:30.637Z,7.80
2022-12-20T10:21:05.650Z,7.70
2022-12-20T10:23:46.317Z,8.17
2022-12-20T10:26:19.702Z,7.47
2022-12-20T10:28:54.046Z,8.20
2022-12-20T10:31:27.275Z,7.70
2022-12-20T10:34:00.484Z,7.70
2022-12-20T10:36:38.308Z,7.60
2022-12-20T10:39:14.813Z,7.80
2022-12-20T10:41:50.925Z,8.07
2022-12-20T10:44:31.907Z,7.50
2022-12-20T10:47:05.389Z,8.27
2022-12-20T10:49:40.072Z,8.90
2022-12-20T10:52:15.048Z,9.50
2022-12-20T10:54:49.687Z,9.20
2022-12-20T10:57:27.485Z,8.80
2022-12-20T11:00:04.874Z,8.40
2022-12-20T11:02:42.102Z,8.37
2022-12-20T11:05:19.133Z,8.80
2022-12-20T11:10:36.904Z,9.30
2022-12-20T11:13:09.826Z,8.80
2022-12-20T11:15:44.952Z,8.40
2022-12-20T11:18:20.281Z,7.63
2022-12-20T11:21:16.464Z,7.80
2022-12-20T11:23:52.982Z,7.40
2022-12-20T11:26:50.149Z,6.93
2022-12-20T11:29:43.301Z,7.37
2022-12-20T11:32:23.664Z,7.50
2022-12-20T11:34:58.749Z,8.00
2022-12-20T11:37:33.796Z,9.00
2022-12-20T11:40:26.605Z,8.80
2022-12-20T11:43:07.653Z,8.90
2022-12-20T11:45:51.494Z,8.60
2022-12-20T11:48:26.425Z,9.30
2022-12-20T11:51:26.722Z,8.60
2022-12-20T11:54:03.422Z,8.80
2022-12-20T11:56:44.677Z,8.37
2022-12-20T11:59:36.006Z,9.00
2022-12-20T12:02:40.429Z,9.10
2022-12-20T12:05:24.634Z,9.20
2022-12-20T12:08:02.538Z,9.60
2022-12-20T12:10:37.357Z,9.50
2022-12-20T12:13:20.642Z,9.60
2022-12-20T12:16:10.795Z,9.47
2022-12-20T12:18:44.404Z,9.30
2022-12-20T12:21:31.621Z,9.03
2022-12-20T12:24:24.271Z,9.13
2022-12-20T12:26:58.289Z,8.90
2022-12-20T12:29:32.562Z,9.43
2022-12-20T12:32:22.635Z,9.10
2022-12-20T12:35:12.735Z,9.33
2022-12-20T12:38:10.092Z,8.90
2022-12-20T12:41:00.109Z,8.77
2022-12-20T12:43:50.218Z,8.80
2022-12-20T12:46:31.220Z,8.70
2022-12-20T12:49:18.298Z,8.60
2022-12-20T12:52:06.254Z,9.07
2022-12-20T12:54:45.406Z,8.50
2022-12-20T12:57:22.258Z,8.20
2022-12-20T12:59:55.274Z,8.00
2022-12-20T13:02:34.206Z,7.93
2022-12-20T13:05:23.970Z,7.83
2022-12-20T13:07:52.768Z,7.70
2022-12-20T13:10:28.729Z,7.70
2022-12-20T13:13:06.067Z,7.60
2022-12-20T13:15:46.943Z,7.80
2022-12-20T13:18:21.737Z,7.20
2022-12-20T13:21:31.757Z,7.30
2022-12-20T13:24:35.530Z,7.63
2022-12-20T13:27:10.007Z,7.40
2022-12-20T13:29:44.586Z,7.60
2022-12-20T13:32:54.895Z,7.60
2022-12-20T13:35:32.315Z,7.10
2022-12-20T13:38:35.978Z,7.50
2022-12-20T13:41:32.731Z,7.20
2022-12-20T13:44:03.695Z,7.70
2022-12-20T13:46:56.814Z,8.10
2022-12-20T13:49:31.887Z,8.00
2022-12-20T13:52:24.562Z,7.70
2022-12-20T13:54:59.474Z,7.60
2022-12-20T13:57:37.829Z,7.37
2022-12-20T14:00:12.873Z,7.13
2022-12-20T14:02:47.519Z,7.30
2022-12-20T14:05:22.321Z,7.03
2022-12-20T14:08:06.145Z,6.80
2022-12-20T14:10:39.847Z,7.40
2022-12-20T14:13:26.530Z,7.70
2022-12-20T14:15:59.344Z,7.47
2022-12-20T14:18:32.231Z,7.30
2022-12-20T14:21:07.875Z,7.53
2022-12-20T14:23:45.420Z,7.23
2022-12-20T14:26:23.717Z,7.20
2022-12-20T14:28:58.255Z,7.20
2022-12-20T14:31:39.397Z,7.40
2022-12-20T14:34:14.342Z,7.30
2022-12-20T14:36:49.265Z,7.70
2022-12-20T14:39:38.543Z,7.60
2022-12-20T14:42:16.573Z,7.40
2022-12-20T14:44:50.394Z,7.40
2022-12-20T14:47:24.872Z,7.40
2022-12-20T14:50:05.455Z,7.30
2022-12-20T14:52:39.771Z,7.20
2022-12-20T14:55:27.058Z,7.20
2022-12-20T14:58:01.552Z,7.80
2022-12-20T15:00:36.291Z,7.50
2022-12-20T15:03:23.409Z,7.20
2022-12-20T15:05:58.074Z,7.37
2022-12-20T15:08:33.799Z,7.30
2022-12-20T15:11:17.779Z,7.30
2022-12-20T15:13:53.827Z,7.60
2022-12-20T15:16:28.167Z,8.13
2022-12-20T15:19:05.785Z,7.33
2022-12-20T15:21:44.933Z,7.10
2022-12-20T15:24:23.764Z,6.90
2022-12-20T15:26:57.304Z,7.20
2022-12-20T15:29:31.518Z,7.10
2022-12-20T15:32:09.750Z,7.20
2022-12-20T15:34:43.312Z,7.10
2022-12-20T15:37:21.019Z,6.90
2022-12-20T15:39:53.944Z,7.00
2022-12-20T15:42:27.659Z,7.10
2022-12-20T15:45:01.011Z,6.90
2022-12-20T15:47:33.877Z,7.10
2022-12-20T15:50:06.704Z,7.10
2022-12-20T15:52:39.606Z,7.30
2022-12-20T15:55:13.933Z,7.40
2022-12-20T15:57:50.058Z,7.30
2022-12-20T16:00:23.529Z,6.90
2022-12-20T16:02:58.190Z,6.57
2022-12-20T16:05:31.118Z,6.80
2022-12-20T16:08:04.065Z,6.97
2022-12-20T16:10:37.041Z,6.70
2022-12-20T16:13:09.951Z,6.80
2022-12-20T16:15:42.724Z,6.83
2022-12-20T16:18:15.744Z,7.60
2022-12-20T16:20:48.661Z,8.30
2022-12-20T16:23:29.129Z,7.40
2022-12-20T16:26:02.119Z,7.30
2022-12-20T16:28:34.974Z,6.80
2022-12-20T16:31:15.923Z,5.70
2022-12-20T16:33:48.823Z,6.00
2022-12-20T16:36:21.835Z,6.20
2022-12-20T16:38:55.862Z,6.00
2022-12-20T16:41:30.783Z,6.10
2022-12-20T16:44:05.127Z,6.03
2022-12-20T16:46:38.080Z,5.93
2022-12-20T16:49:19.417Z,5.90
2022-12-20T16:51:47.846Z,6.10
2022-12-20T16:54:25.303Z,6.00
2022-12-20T16:56:58.667Z,5.90
2022-12-20T16:59:31.391Z,6.00
2022-12-20T17:02:04.577Z,5.60
2022-12-20T17:04:42.406Z,5.97
2022-12-20T17:07:15.321Z,6.20
2022-12-20T17:09:48.143Z,6.10
2022-12-20T17:12:22.377Z,5.70
2022-12-20T17:14:55.465Z,5.50
2022-12-20T17:17:28.284Z,5.40
2022-12-20T17:20:01.279Z,5.30
2022-12-20T17:22:34.448Z,6.23
2022-12-20T17:25:07.589Z,5.67
2022-12-20T17:27:40.432Z,5.90
2022-12-20T17:30:14.394Z,5.60
2022-12-20T17:32:47.534Z,5.60
2022-12-20T17:35:35.438Z,5.40
2022-12-20T17:38:09.490Z,5.67
2022-12-20T17:40:42.307Z,5.47
2022-12-20T17:43:16.008Z,5.20
2022-12-20T17:45:49.621Z,5.50
2022-12-20T17:48:25.021Z,5.40
2022-12-20T17:50:56.514Z,5.30
2022-12-20T17:53:29.446Z,5.70
2022-12-20T17:56:06.961Z,5.10
2022-12-20T17:58:42.506Z,5.00
2022-12-20T18:01:25.872Z,5.20
2022-12-20T18:04:05.856Z,5.37
2022-12-20T18:06:40.703Z,5.60
2022-12-20T18:09:22.441Z,5.60
2022-12-20T18:11:55.443Z,5.80
2022-12-20T18:14:28.292Z,6.00
2022-12-20T18:17:01.197Z,6.30
2022-12-20T18:19:34.043Z,6.30
2022-12-20T18:22:06.891Z,6.33
2022-12-20T18:24:39.844Z,6.40
2022-12-20T18:27:13.034Z,6.30
2022-12-20T18:29:46.033Z,6.00
2022-12-20T18:32:19.131Z,5.80
2022-12-20T18:34:52.518Z,6.00
2022-12-20T18:37:25.245Z,6.10
2022-12-20T18:39:58.041Z,6.00
2022-12-20T18:42:30.871Z,6.10
2022-12-20T18:45:03.841Z,6.20
2022-12-20T18:47:37.240Z,6.10
2022-12-20T18:50:10.873Z,6.30
2022-12-20T18:52:47.260Z,6.10
2022-12-20T18:55:18.821Z,6.00
2022-12-20T18:57:51.854Z,6.17
2022-12-20T19:00:29.880Z,5.60
2022-12-20T19:03:04.382Z,5.80
2022-12-20T19:05:40.407Z,6.13
2022-12-20T19:08:13.979Z,6.10
2022-12-20T19:10:46.762Z,6.30
2022-12-20T19:13:23.324Z,6.20
2022-12-20T19:15:58.400Z,6.20
2022-12-20T19:18:31.215Z,6.20
2022-12-20T19:21:12.164Z,6.30
2022-12-20T19:23:46.132Z,7.00
2022-12-20T19:26:19.913Z,6.50
2022-12-20T19:28:53.023Z,6.50
2022-12-20T19:31:28.045Z,6.60
2022-12-20T19:34:03.364Z,7.00
2022-12-20T19:36:44.464Z,6.80
2022-12-20T19:39:19.081Z,6.77
2022-12-20T19:44:26.533Z,6.80
2022-12-20T19:47:07.149Z,6.70
2022-12-20T19:49:40.198Z,6.60
2022-12-20T19:52:13.153Z,6.50
2022-12-20T19:54:46.178Z,6.70
2022-12-20T19:57:19.086Z,6.60
2022-12-20T19:59:56.259Z,6.70
2022-12-20T20:02:28.584Z,6.63
2022-12-20T20:05:01.848Z,6.67
2022-12-20T20:07:35.207Z,6.70
2022-12-20T20:10:08.151Z,6.60
2022-12-20T20:12:50.162Z,6.50
2022-12-20T20:15:22.922Z,6.97
2022-12-20T20:17:55.838Z,7.20
2022-12-20T20:20:28.672Z,7.00
2022-12-20T20:23:01.501Z,6.67
2022-12-20T20:25:35.458Z,6.50
2022-12-20T20:28:08.367Z,6.47
2022-12-20T20:30:44.658Z,6.40
2022-12-20T20:33:17.619Z,6.20
2022-12-20T20:35:57.773Z,6.20
2022-12-20T20:38:32.186Z,6.10
2022-12-20T20:41:05.086Z,6.30
2022-12-20T20:43:38.705Z,6.30
2022-12-20T20:46:13.256Z,6.20
2022-12-20T20:48:50.873Z,6.20
2022-12-20T20:51:23.551Z,6.20
2022-12-20T20:53:56.315Z,6.10
2022-12-20T20:56:29.118Z,6.33
2022-12-20T20:59:07.043Z,6.30
2022-12-20T21:01:36.929Z,6.40
2022-12-20T21:04:10.521Z,6.80
2022-12-20T21:06:47.457Z,6.90
2022-12-20T21:09:20.775Z,6.60
2022-12-20T21:11:53.641Z,6.70
2022-12-20T21:15:00.440Z,6.10
2022-12-20T21:17:00.621Z,6.10
2022-12-20T21:19:33.297Z,5.90
2022-12-20T21:22:06.078Z,5.80
2022-12-20T21:24:38.900Z,5.70
2022-12-20T21:27:14.634Z,5.80
2022-12-20T21:29:47.547Z,5.40
2022-12-20T21:32:20.376Z,5.50
2022-12-20T21:34:53.023Z,5.50
2022-12-20T21:37:26.081Z,5.30
2022-12-20T21:39:58.915Z,5.17
2022-12-20T21:42:31.934Z,4.97
2022-12-20T21:45:04.851Z,5.20
2022-12-20T21:47:38.639Z,4.93
2022-12-20T21:50:12.249Z,5.00
2022-12-20T21:52:44.969Z,4.90
2022-12-20T21:55:17.767Z,5.10
2022-12-20T21:57:50.572Z,5.40
2022-12-20T22:00:24.877Z,4.80
2022-12-20T22:02:58.848Z,4.97
2022-12-20T22:05:36.461Z,5.20
2022-12-20T22:08:09.413Z,5.03
2022-12-20T22:10:42.483Z,4.60
2022-12-20T22:13:15.722Z,4.80
2022-12-20T22:15:48.602Z,4.70
2022-12-20T22:18:26.050Z,5.00
2022-12-20T22:20:58.965Z,5.00
2022-12-20T22:23:31.880Z,4.70
2022-12-20T22:26:08.942Z,4.70
2022-12-20T22:28:41.750Z,4.60
2022-12-20T22:31:15.056Z,5.10
2022-12-20T22:33:48.107Z,4.90
2022-12-20T22:36:20.966Z,4.90
2022-12-20T22:38:55.287Z,4.50
2022-12-20T22:41:30.736Z,4.90
2022-12-20T22:44:04.027Z,4.90
2022-12-20T22:46:37.295Z,4.70
2022-12-20T22:49:10.252Z,4.77
2022-12-20T22:51:42.967Z,4.60
2022-12-20T22:54:18.791Z,4.30
2022-12-20T22:56:51.818Z,4.00
2022-12-20T22:59:24.833Z,4.00
2022-12-20T23:01:58.002Z,3.80
2022-12-20T23:04:30.764Z,4.00
2022-12-20T23:07:04.414Z,3.70
2022-12-20T23:09:37.692Z,3.90
2022-12-20T23:12:29.260Z,4.00
2022-12-20T23:15:09.848Z,4.00
2022-12-20T23:17:43.036Z,3.90
2022-12-20T23:20:33.756Z,3.90
2022-12-20T23:23:06.783Z,4.30
2022-12-20T23:25:39.750Z,4.50
2022-12-20T23:28:12.662Z,4.20
2022-12-20T23:30:45.958Z,4.53
2022-12-20T23:33:18.483Z,3.90
2022-12-20T23:35:53.101Z,3.97
2022-12-20T23:38:25.945Z,3.60
2022-12-20T23:40:58.904Z,3.60
2022-12-20T23:43:35.399Z,3.40
2022-12-20T23:46:16.912Z,3.50
2022-12-20T23:48:49.852Z,3.50
2022-12-20T23:51:22.827Z,3.50
2022-12-20T23:53:58.711Z,3.80
2022-12-20T23:56:31.699Z,3.80
2022-12-20T23:59:04.994Z,3.73
